sensor_id;sensor_type;location;lat;lon;timestamp;pressure;altitude;pressure_sealevel;temperature;humidity
61786;BME280;47692;53.714;11.372;2024-03-06T00:01:33;101609.06;;;2.74;100.00
61786;BME280;47692;53.714;11.372;2024-03-06T00:03:59;101614.13;;;2.71;100.00
61786;BME280;47692;53.714;11.372;2024-03-06T00:06:25;101615.75;;;2.66;100.00
61786;BME280;47692;53.714;11.372;2024-03-06T00:08:50;101612.31;;;2.65;100.00
61786;BME280;47692;53.714;11.372;2024-03-06T00:11:16;101617.44;;;2.64;100.00
61786;BME280;47692;53.714;11.372;2024-03-06T00:13:42;101618.28;;;2.64;100.00
61786;BME280;47692;53.714;11.372;2024-03-06T00:16:08;101622.50;;;2.61;100.00
61786;BME280;47692;53.714;11.372;2024-03-06T00:18:33;101626.09;;;2.67;100.00
61786;BME280;47692;53.714;11.372;2024-03-06T00:20:59;101626.03;;;2.64;100.00
61786;BME280;47692;53.714;11.372;2024-03-06T00:23:24;101632.13;;;2.68;100.00
61786;BME280;47692;53.714;11.372;2024-03-06T00:25:50;101633.75;;;2.64;100.00
61786;BME280;47692;53.714;11.372;2024-03-06T00:28:15;101632.97;;;2.67;100.00
61786;BME280;47692;53.714;11.372;2024-03-06T00:30:40;101632.16;;;2.69;100.00
61786;BME280;47692;53.714;11.372;2024-03-06T00:33:06;101637.44;;;2.74;100.00
61786;BME280;47692;53.714;11.372;2024-03-06T00:35:32;101630.41;;;2.68;100.00
61786;BME280;47692;53.714;11.372;2024-03-06T00:37:57;101635.69;;;2.73;100.00
61786;BME280;47692;53.714;11.372;2024-03-06T00:40:27;101641.84;;;2.78;100.00
61786;BME280;47692;53.714;11.372;2024-03-06T00:42:52;101641.69;;;2.72;100.00
61786;BME280;47692;53.714;11.372;2024-03-06T00:45:17;101644.53;;;2.83;100.00
61786;BME280;47692;53.714;11.372;2024-03-06T00:47:43;101649.56;;;2.78;100.00
61786;BME280;47692;53.714;11.372;2024-03-06T00:50:08;101648.75;;;2.79;100.00
61786;BME280;47692;53.714;11.372;2024-03-06T00:52:33;101641.78;;;2.75;100.00
61786;BME280;47692;53.714;11.372;2024-03-06T00:54:59;101647.63;;;2.69;100.00
61786;BME280;47692;53.714;11.372;2024-03-06T00:57:24;101646.84;;;2.72;100.00
61786;BME280;47692;53.714;11.372;2024-03-06T00:59:49;101659.06;;;2.79;100.00
61786;BME280;47692;53.714;11.372;2024-03-06T01:02:15;101651.31;;;2.79;100.00
61786;BME280;47692;53.714;11.372;2024-03-06T01:04:40;101654.75;;;2.80;100.00
61786;BME280;47692;53.714;11.372;2024-03-06T01:07:05;101660.81;;;2.80;100.00
61786;BME280;47692;53.714;11.372;2024-03-06T01:09:31;101661.56;;;2.76;100.00
61786;BME280;47692;53.714;11.372;2024-03-06T01:11:56;101660.56;;;2.71;100.00
61786;BME280;47692;53.714;11.372;2024-03-06T01:14:22;101664.75;;;2.67;100.00
61786;BME280;47692;53.714;11.372;2024-03-06T01:16:47;101667.41;;;2.69;100.00
61786;BME280;47692;53.714;11.372;2024-03-06T01:19:12;101674.31;;;2.70;100.00
61786;BME280;47692;53.714;11.372;2024-03-06T01:21:38;101669.88;;;2.64;100.00
61786;BME280;47692;53.714;11.372;2024-03-06T01:24:03;101662.91;;;2.60;100.00
61786;BME280;47692;53.714;11.372;2024-03-06T01:26:29;101667.31;;;2.66;100.00
61786;BME280;47692;53.714;11.372;2024-03-06T01:28:54;101668.09;;;2.62;100.00
61786;BME280;47692;53.714;11.372;2024-03-06T01:31:19;101668.06;;;2.60;100.00
61786;BME280;47692;53.714;11.372;2024-03-06T01:33:45;101666.31;;;2.59;100.00
61786;BME280;47692;53.714;11.372;2024-03-06T01:36:10;101665.50;;;2.62;100.00
61786;BME280;47692;53.714;11.372;2024-03-06T01:38:35;101679.31;;;2.64;100.00
61786;BME280;47692;53.714;11.372;2024-03-06T01:41:01;101682.09;;;2.71;100.00
61786;BME280;47692;53.714;11.372;2024-03-06T01:43:26;101688.19;;;2.75;100.00
61786;BME280;47692;53.714;11.372;2024-03-06T01:45:52;101689.06;;;2.75;100.00
61786;BME280;47692;53.714;11.372;2024-03-06T01:48:21;101689.84;;;2.73;100.00
61786;BME280;47692;53.714;11.372;2024-03-06T01:50:48;101691.50;;;2.71;100.00
61786;BME280;47692;53.714;11.372;2024-03-06T01:53:14;101688.06;;;2.70;100.00
61786;BME280;47692;53.714;11.372;2024-03-06T01:55:42;101691.44;;;2.68;100.00
61786;BME280;47692;53.714;11.372;2024-03-06T01:58:08;101684.47;;;2.64;100.00
61786;BME280;47692;53.714;11.372;2024-03-06T02:00:34;101692.94;;;2.59;100.00
61786;BME280;47692;53.714;11.372;2024-03-06T02:03:00;101691.28;;;2.62;100.00
61786;BME280;47692;53.714;11.372;2024-03-06T02:05:27;101698.19;;;2.63;100.00
61786;BME280;47692;53.714;11.372;2024-03-06T02:07:53;101704.25;;;2.65;100.00
61786;BME280;47692;53.714;11.372;2024-03-06T02:10:18;101694.94;;;2.70;100.00
61786;BME280;47692;53.714;11.372;2024-03-06T02:12:44;101695.88;;;2.73;100.00
61786;BME280;47692;53.714;11.372;2024-03-06T02:15:10;101702.94;;;2.81;100.00
61786;BME280;47692;53.714;11.372;2024-03-06T02:17:37;101707.38;;;2.86;100.00
61786;BME280;47692;53.714;11.372;2024-03-06T02:20:03;101702.22;;;2.86;100.00
61786;BME280;47692;53.714;11.372;2024-03-06T02:22:31;101710.88;;;2.88;100.00
61786;BME280;47692;53.714;11.372;2024-03-06T02:24:57;101707.44;;;2.89;100.00
61786;BME280;47692;53.714;11.372;2024-03-06T02:27:22;101711.63;;;2.84;100.00
61786;BME280;47692;53.714;11.372;2024-03-06T02:29:47;101710.63;;;2.79;100.00
61786;BME280;47692;53.714;11.372;2024-03-06T02:32:13;101702.78;;;2.74;100.00
61786;BME280;47692;53.714;11.372;2024-03-06T02:34:39;101712.13;;;2.71;100.00
61786;BME280;47692;53.714;11.372;2024-03-06T02:37:05;101709.53;;;2.69;100.00
61786;BME280;47692;53.714;11.372;2024-03-06T02:39:31;101712.13;;;2.71;100.00
61786;BME280;47692;53.714;11.372;2024-03-06T02:41:56;101710.41;;;2.70;100.00
61786;BME280;47692;53.714;11.372;2024-03-06T02:44:22;101713.84;;;2.70;100.00
61786;BME280;47692;53.714;11.372;2024-03-06T02:46:47;101708.66;;;2.69;100.00
61786;BME280;47692;53.714;11.372;2024-03-06T02:49:14;101705.25;;;2.70;100.00
61786;BME280;47692;53.714;11.372;2024-03-06T02:51:39;101711.25;;;2.69;100.00
61786;BME280;47692;53.714;11.372;2024-03-06T02:54:05;101708.66;;;2.69;100.00
61786;BME280;47692;53.714;11.372;2024-03-06T02:56:30;101711.47;;;2.78;100.00
61786;BME280;47692;53.714;11.372;2024-03-06T02:58:55;101716.56;;;2.75;100.00
61786;BME280;47692;53.714;11.372;2024-03-06T03:01:21;101719.16;;;2.77;100.00
61786;BME280;47692;53.714;11.372;2024-03-06T03:03:46;101715.47;;;2.67;100.00
61786;BME280;47692;53.714;11.372;2024-03-06T03:06:12;101717.13;;;2.65;100.00
61786;BME280;47692;53.714;11.372;2024-03-06T03:08:38;101715.41;;;2.64;100.00
61786;BME280;47692;53.714;11.372;2024-03-06T03:11:04;101717.28;;;2.71;100.00
61786;BME280;47692;53.714;11.372;2024-03-06T03:13:30;101719.94;;;2.72;100.00
61786;BME280;47692;53.714;11.372;2024-03-06T03:15:58;101717.44;;;2.77;100.00
61786;BME280;47692;53.714;11.372;2024-03-06T03:18:23;101714.13;;;2.81;100.00
61786;BME280;47692;53.714;11.372;2024-03-06T03:20:48;101715.94;;;2.85;100.00
61786;BME280;47692;53.714;11.372;2024-03-06T03:23:14;101722.75;;;2.83;100.00
61786;BME280;47692;53.714;11.372;2024-03-06T03:25:40;101732.22;;;2.83;100.00
61786;BME280;47692;53.714;11.372;2024-03-06T03:28:06;101732.22;;;2.83;100.00
61786;BME280;47692;53.714;11.372;2024-03-06T03:30:31;101735.09;;;2.94;100.00
61786;BME280;47692;53.714;11.372;2024-03-06T03:32:57;101741.84;;;2.88;100.00
61786;BME280;47692;53.714;11.372;2024-03-06T03:35:23;101736.59;;;2.85;100.00
61786;BME280;47692;53.714;11.372;2024-03-06T03:37:51;101753.03;;;2.90;100.00
61786;BME280;47692;53.714;11.372;2024-03-06T03:40:17;101745.09;;;2.81;100.00
61786;BME280;47692;53.714;11.372;2024-03-06T03:42:43;101750.09;;;2.75;100.00
61786;BME280;47692;53.714;11.372;2024-03-06T03:45:09;101753.56;;;2.77;100.00
61786;BME280;47692;53.714;11.372;2024-03-06T03:47:34;101755.41;;;2.81;100.00
61786;BME280;47692;53.714;11.372;2024-03-06T03:49:59;101756.38;;;2.85;100.00
61786;BME280;47692;53.714;11.372;2024-03-06T03:52:25;101762.38;;;2.85;100.00
61786;BME280;47692;53.714;11.372;2024-03-06T03:54:50;101768.50;;;2.89;100.00
61786;BME280;47692;53.714;11.372;2024-03-06T03:57:15;101766.78;;;2.89;100.00
61786;BME280;47692;53.714;11.372;2024-03-06T03:59:42;101769.44;;;2.93;100.00
61786;BME280;47692;53.714;11.372;2024-03-06T04:02:08;101759.97;;;2.91;100.00
61786;BME280;47692;53.714;11.372;2024-03-06T04:04:33;101769.50;;;2.96;100.00
61786;BME280;47692;53.714;11.372;2024-03-06T04:06:59;101764.28;;;2.93;100.00
61786;BME280;47692;53.714;11.372;2024-03-06T04:09:27;101755.47;;;2.84;100.00
61786;BME280;47692;53.714;11.372;2024-03-06T04:11:52;101756.22;;;2.80;100.00
61786;BME280;47692;53.714;11.372;2024-03-06T04:14:17;101767.38;;;2.79;100.00
61786;BME280;47692;53.714;11.372;2024-03-06T04:16:45;101761.41;;;2.80;100.00
61786;BME280;47692;53.714;11.372;2024-03-06T04:19:11;101767.38;;;2.79;100.00
61786;BME280;47692;53.714;11.372;2024-03-06T04:21:43;101772.78;;;2.88;100.00
61786;BME280;47692;53.714;11.372;2024-03-06T04:24:08;101779.78;;;2.93;100.00
61786;BME280;47692;53.714;11.372;2024-03-06T04:26:34;101775.41;;;2.90;100.00
61786;BME280;47692;53.714;11.372;2024-03-06T04:29:00;101785.91;;;2.98;100.00
61786;BME280;47692;53.714;11.372;2024-03-06T04:31:25;101789.34;;;2.98;100.00
61786;BME280;47692;53.714;11.372;2024-03-06T04:33:50;101781.44;;;2.90;100.00
61786;BME280;47692;53.714;11.372;2024-03-06T04:36:16;101773.78;;;2.94;100.00
61786;BME280;47692;53.714;11.372;2024-03-06T04:38:42;101783.09;;;2.88;100.00
61786;BME280;47692;53.714;11.372;2024-03-06T04:41:07;101784.75;;;2.86;100.00
61786;BME280;47692;53.714;11.372;2024-03-06T04:43:32;101779.50;;;2.83;100.00
61786;BME280;47692;53.714;11.372;2024-03-06T04:45:58;101776.94;;;2.83;100.00
61786;BME280;47692;53.714;11.372;2024-03-06T04:48:23;101780.31;;;2.81;100.00
61786;BME280;47692;53.714;11.372;2024-03-06T04:50:49;101785.56;;;2.84;100.00
61786;BME280;47692;53.714;11.372;2024-03-06T04:53:14;101786.94;;;2.71;100.00
61786;BME280;47692;53.714;11.372;2024-03-06T04:55:39;101789.44;;;2.68;100.00
61786;BME280;47692;53.714;11.372;2024-03-06T04:58:05;101791.50;;;2.81;100.00
61786;BME280;47692;53.714;11.372;2024-03-06T05:00:30;101805.56;;;2.93;100.00
61786;BME280;47692;53.714;11.372;2024-03-06T05:02:56;101802.22;;;2.97;100.00
61786;BME280;47692;53.714;11.372;2024-03-06T05:05:21;101800.25;;;2.86;100.00
61786;BME280;47692;53.714;11.372;2024-03-06T05:07:47;101811.38;;;2.85;100.00
61786;BME280;47692;53.714;11.372;2024-03-06T05:10:13;101810.53;;;2.85;100.00
61786;BME280;47692;53.714;11.372;2024-03-06T05:12:38;101818.19;;;2.83;100.00
61786;BME280;47692;53.714;11.372;2024-03-06T05:15:04;101821.69;;;2.84;100.00
61786;BME280;47692;53.714;11.372;2024-03-06T05:17:29;101831.25;;;2.89;100.00
61786;BME280;47692;53.714;11.372;2024-03-06T05:19:55;101822.53;;;2.84;100.00
61786;BME280;47692;53.714;11.372;2024-03-06T05:22:20;101832.94;;;2.87;100.00
61786;BME280;47692;53.714;11.372;2024-03-06T05:24:46;101820.88;;;2.86;100.00
61786;BME280;47692;53.714;11.372;2024-03-06T05:27:11;101829.53;;;2.88;100.00
61786;BME280;47692;53.714;11.372;2024-03-06T05:29:41;101822.53;;;2.84;100.00
61786;BME280;47692;53.714;11.372;2024-03-06T05:32:07;101832.94;;;2.87;100.00
61786;BME280;47692;53.714;11.372;2024-03-06T05:34:32;101832.84;;;2.84;100.00
61786;BME280;47692;53.714;11.372;2024-03-06T05:36:58;101831.19;;;2.86;100.00
61786;BME280;47692;53.714;11.372;2024-03-06T05:39:24;101839.09;;;2.93;100.00
61786;BME280;47692;53.714;11.372;2024-03-06T05:41:49;101839.09;;;2.93;100.00
61786;BME280;47692;53.714;11.372;2024-03-06T05:44:14;101839.88;;;2.88;100.00
61786;BME280;47692;53.714;11.372;2024-03-06T05:46:40;101837.88;;;2.80;100.00
61786;BME280;47692;53.714;11.372;2024-03-06T05:49:05;101833.31;;;2.69;100.00
61786;BME280;47692;53.714;11.372;2024-03-06T05:51:31;101830.69;;;2.68;100.00
61786;BME280;47692;53.714;11.372;2024-03-06T05:53:56;101832.28;;;2.63;100.00
61786;BME280;47692;53.714;11.372;2024-03-06T05:56:21;101838.28;;;2.63;100.00
61786;BME280;47692;53.714;11.372;2024-03-06T05:58:47;101840.84;;;2.62;100.00
61786;BME280;47692;53.714;11.372;2024-03-06T06:01:16;101843.25;;;2.55;100.00
61786;BME280;47692;53.714;11.372;2024-03-06T06:03:45;101845.81;;;2.55;100.00
61786;BME280;47692;53.714;11.372;2024-03-06T06:06:10;101854.38;;;2.54;100.00
61786;BME280;47692;53.714;11.372;2024-03-06T06:08:36;101854.38;;;2.54;100.00
61786;BME280;47692;53.714;11.372;2024-03-06T06:11:04;101857.78;;;2.53;100.00
61786;BME280;47692;53.714;11.372;2024-03-06T06:13:29;101861.38;;;2.58;100.00
61786;BME280;47692;53.714;11.372;2024-03-06T06:15:58;101861.53;;;2.65;100.00
61786;BME280;47692;53.714;11.372;2024-03-06T06:18:23;101868.56;;;2.69;100.00
61786;BME280;47692;53.714;11.372;2024-03-06T06:20:48;101868.56;;;2.69;100.00
61786;BME280;47692;53.714;11.372;2024-03-06T06:23:13;101878.94;;;2.72;100.00
61786;BME280;47692;53.714;11.372;2024-03-06T06:25:39;101879.03;;;2.75;100.00
61786;BME280;47692;53.714;11.372;2024-03-06T06:28:04;101894.69;;;2.81;100.00
61786;BME280;47692;53.714;11.372;2024-03-06T06:30:30;101894.84;;;2.87;100.00
61786;BME280;47692;53.714;11.372;2024-03-06T06:32:56;101893.19;;;2.89;99.37
61786;BME280;47692;53.714;11.372;2024-03-06T06:35:21;101894.09;;;2.91;97.94
61786;BME280;47692;53.714;11.372;2024-03-06T06:37:47;101911.22;;;2.89;96.43
61786;BME280;47692;53.714;11.372;2024-03-06T06:40:13;101907.59;;;2.81;95.51
61786;BME280;47692;53.714;11.372;2024-03-06T06:42:44;101905.06;;;2.84;94.99
61786;BME280;47692;53.714;11.372;2024-03-06T06:45:12;101902.28;;;2.77;93.86
61786;BME280;47692;53.714;11.372;2024-03-06T06:47:37;101913.28;;;2.71;93.25
61786;BME280;47692;53.714;11.372;2024-03-06T06:50:04;101914.22;;;2.73;93.53
61786;BME280;47692;53.714;11.372;2024-03-06T06:52:30;101914.97;;;2.69;93.49
61786;BME280;47692;53.714;11.372;2024-03-06T06:54:58;101914.97;;;2.69;93.71
61786;BME280;47692;53.714;11.372;2024-03-06T06:57:24;101921.00;;;2.69;94.34
61786;BME280;47692;53.714;11.372;2024-03-06T06:59:49;101931.34;;;2.71;93.76
61786;BME280;47692;53.714;11.372;2024-03-06T07:02:14;101933.06;;;2.70;94.15
61786;BME280;47692;53.714;11.372;2024-03-06T07:04:40;101938.28;;;2.73;94.32
61786;BME280;47692;53.714;11.372;2024-03-06T07:07:05;101935.50;;;2.66;93.65
61786;BME280;47692;53.714;11.372;2024-03-06T07:09:30;101938.25;;;2.72;93.83
61786;BME280;47692;53.714;11.372;2024-03-06T07:11:56;101941.00;;;2.78;92.99
61786;BME280;47692;53.714;11.372;2024-03-06T07:14:21;101947.09;;;2.80;92.59
61786;BME280;47692;53.714;11.372;2024-03-06T07:16:47;101947.94;;;2.79;92.23
61786;BME280;47692;53.714;11.372;2024-03-06T07:19:12;101946.97;;;2.75;91.75
61786;BME280;47692;53.714;11.372;2024-03-06T07:21:38;101948.56;;;2.72;92.47
61786;BME280;47692;53.714;11.372;2024-03-06T07:24:04;101958.06;;;2.73;92.74
61786;BME280;47692;53.714;11.372;2024-03-06T07:26:30;101960.81;;;2.79;92.82
61786;BME280;47692;53.714;11.372;2024-03-06T07:28:56;101958.25;;;2.79;93.28
61786;BME280;47692;53.714;11.372;2024-03-06T07:31:21;101970.38;;;2.83;93.39
61786;BME280;47692;53.714;11.372;2024-03-06T07:33:46;101969.72;;;2.89;93.55
61786;BME280;47692;53.714;11.372;2024-03-06T07:36:11;101976.63;;;2.90;93.29
61786;BME280;47692;53.714;11.372;2024-03-06T07:38:37;101982.78;;;2.95;92.98
61786;BME280;47692;53.714;11.372;2024-03-06T07:41:02;101980.16;;;2.94;93.12
61786;BME280;47692;53.714;11.372;2024-03-06T07:43:27;101985.97;;;2.86;92.67
61786;BME280;47692;53.714;11.372;2024-03-06T07:45:53;101984.97;;;2.81;92.12
61786;BME280;47692;53.714;11.372;2024-03-06T07:48:18;101986.75;;;2.84;91.66
61786;BME280;47692;53.714;11.372;2024-03-06T07:50:44;101980.63;;;2.80;91.71
61786;BME280;47692;53.714;11.372;2024-03-06T07:53:10;101987.66;;;2.86;91.83
61786;BME280;47692;53.714;11.372;2024-03-06T07:55:35;101996.19;;;2.83;92.16
61786;BME280;47692;53.714;11.372;2024-03-06T07:58:00;101995.34;;;2.84;92.66
61786;BME280;47692;53.714;11.372;2024-03-06T08:00:26;102003.09;;;2.84;92.72
61786;BME280;47692;53.714;11.372;2024-03-06T08:02:52;102008.38;;;2.87;92.18
61786;BME280;47692;53.714;11.372;2024-03-06T08:05:17;102004.66;;;2.79;91.67
61786;BME280;47692;53.714;11.372;2024-03-06T08:07:43;102007.53;;;2.88;91.80
61786;BME280;47692;53.714;11.372;2024-03-06T08:10:10;102020.56;;;2.93;91.48
61786;BME280;47692;53.714;11.372;2024-03-06T08:12:41;102019.59;;;2.89;90.71
61786;BME280;47692;53.714;11.372;2024-03-06T08:15:11;102017.84;;;2.88;90.52
61786;BME280;47692;53.714;11.372;2024-03-06T08:17:43;102016.09;;;2.87;91.20
61786;BME280;47692;53.714;11.372;2024-03-06T08:20:09;102023.28;;;2.98;90.76
61786;BME280;47692;53.714;11.372;2024-03-06T08:22:39;102030.22;;;3.00;90.61
61786;BME280;47692;53.714;11.372;2024-03-06T08:25:09;102038.00;;;3.02;90.32
61786;BME280;47692;53.714;11.372;2024-03-06T08:27:36;102039.88;;;3.06;90.18
61786;BME280;47692;53.714;11.372;2024-03-06T08:30:06;102044.13;;;3.05;89.94
61786;BME280;47692;53.714;11.372;2024-03-06T08:32:34;102042.44;;;3.06;89.97
61786;BME280;47692;53.714;11.372;2024-03-06T08:35:04;102045.03;;;3.06;90.21
61786;BME280;47692;53.714;11.372;2024-03-06T08:37:36;102048.78;;;3.17;90.41
61786;BME280;47692;53.714;11.372;2024-03-06T08:40:01;102054.22;;;3.27;90.41
61786;BME280;47692;53.714;11.372;2024-03-06T08:42:27;102049.16;;;3.30;90.68
61786;BME280;47692;53.714;11.372;2024-03-06T08:44:53;102056.91;;;3.30;90.56
61786;BME280;47692;53.714;11.372;2024-03-06T08:47:18;102059.72;;;3.39;91.12
61786;BME280;47692;53.714;11.372;2024-03-06T08:49:44;102065.34;;;3.54;91.16
61786;BME280;47692;53.714;11.372;2024-03-06T08:52:09;102066.38;;;3.61;90.71
61786;BME280;47692;53.714;11.372;2024-03-06T08:54:35;102071.88;;;3.74;90.42
61786;BME280;47692;53.714;11.372;2024-03-06T08:57:00;102084.31;;;3.87;90.00
61786;BME280;47692;53.714;11.372;2024-03-06T08:59:28;102085.88;;;3.82;88.68
61786;BME280;47692;53.714;11.372;2024-03-06T09:01:54;102073.59;;;3.73;88.21
61786;BME280;47692;53.714;11.372;2024-03-06T09:04:19;102082.44;;;3.83;88.51
61786;BME280;47692;53.714;11.372;2024-03-06T09:06:45;102090.66;;;4.00;88.58
61786;BME280;47692;53.714;11.372;2024-03-06T09:09:10;102092.47;;;4.04;88.58
61786;BME280;47692;53.714;11.372;2024-03-06T09:11:35;102103.03;;;4.12;88.22
61786;BME280;47692;53.714;11.372;2024-03-06T09:14:02;102111.06;;;4.23;88.23
61786;BME280;47692;53.714;11.372;2024-03-06T09:16:29;102107.66;;;4.25;87.06
61786;BME280;47692;53.714;11.372;2024-03-06T09:18:54;102105.53;;;4.09;86.47
61786;BME280;47692;53.714;11.372;2024-03-06T09:21:20;102104.09;;;4.20;86.51
61786;BME280;47692;53.714;11.372;2024-03-06T09:23:47;102111.00;;;4.19;86.21
61786;BME280;47692;53.714;11.372;2024-03-06T09:26:16;102111.75;;;4.15;86.28
61786;BME280;47692;53.714;11.372;2024-03-06T09:28:41;102119.53;;;4.17;86.34
61786;BME280;47692;53.714;11.372;2024-03-06T09:31:07;102114.13;;;4.08;86.77
61786;BME280;47692;53.714;11.372;2024-03-06T09:33:32;102111.50;;;4.06;87.52
61786;BME280;47692;53.714;11.372;2024-03-06T09:35:57;102105.97;;;3.92;87.80
61786;BME280;47692;53.714;11.372;2024-03-06T09:38:23;102117.31;;;3.99;88.06
61786;BME280;47692;53.714;11.372;2024-03-06T09:40:49;102116.50;;;4.00;87.72
61786;BME280;47692;53.714;11.372;2024-03-06T09:43:16;102130.41;;;4.05;87.04
61786;BME280;47692;53.714;11.372;2024-03-06T09:45:44;102121.19;;;4.15;86.03
61786;BME280;47692;53.714;11.372;2024-03-06T09:48:12;102143.00;;;4.25;85.67
61786;BME280;47692;53.714;11.372;2024-03-06T09:50:39;102140.38;;;4.23;85.10
61786;BME280;47692;53.714;11.372;2024-03-06T09:53:09;102128.06;;;4.13;85.02
61786;BME280;47692;53.714;11.372;2024-03-06T09:55:35;102140.28;;;4.20;85.55
61786;BME280;47692;53.714;11.372;2024-03-06T09:58:00;102142.31;;;4.30;85.56
61786;BME280;47692;53.714;11.372;2024-03-06T10:00:28;102146.75;;;4.36;85.06
61786;BME280;47692;53.714;11.372;2024-03-06T10:02:59;102148.50;;;4.37;84.91
61786;BME280;47692;53.714;11.372;2024-03-06T10:05:25;102144.75;;;4.26;84.58
61786;BME280;47692;53.714;11.372;2024-03-06T10:07:51;102151.03;;;4.35;84.86
61786;BME280;47692;53.714;11.372;2024-03-06T10:10:17;102154.53;;;4.37;85.18
61786;BME280;47692;53.714;11.372;2024-03-06T10:12:44;102151.19;;;4.40;84.89
61786;BME280;47692;53.714;11.372;2024-03-06T10:15:10;102153.63;;;4.35;85.08
61786;BME280;47692;53.714;11.372;2024-03-06T10:17:37;102155.47;;;4.41;85.46
61786;BME280;47692;53.714;11.372;2024-03-06T10:20:22;102162.66;;;4.51;85.69
61786;BME280;47692;53.714;11.372;2024-03-06T10:22:52;102166.16;;;4.53;85.80
61786;BME280;47692;53.714;11.372;2024-03-06T10:25:22;102156.34;;;4.40;85.48
61786;BME280;47692;53.714;11.372;2024-03-06T10:28:07;102164.34;;;4.51;85.90
61786;BME280;47692;53.714;11.372;2024-03-06T10:30:51;102171.56;;;4.63;85.88
61786;BME280;47692;53.714;11.372;2024-03-06T10:33:18;102169.16;;;4.71;85.52
61786;BME280;47692;53.714;11.372;2024-03-06T10:35:47;102178.88;;;4.79;84.90
61786;BME280;47692;53.714;11.372;2024-03-06T10:38:19;102180.47;;;4.74;84.40
61786;BME280;47692;53.714;11.372;2024-03-06T10:40:45;102176.06;;;4.70;83.99
61786;BME280;47692;53.714;11.372;2024-03-06T10:43:11;102179.63;;;4.75;84.22
61786;BME280;47692;53.714;11.372;2024-03-06T10:45:48;102180.53;;;4.77;83.19
61786;BME280;47692;53.714;11.372;2024-03-06T10:48:16;102174.28;;;4.67;82.41
61786;BME280;47692;53.714;11.372;2024-03-06T10:50:43;102170.94;;;4.73;82.43
61786;BME280;47692;53.714;11.372;2024-03-06T10:53:11;102171.72;;;4.69;82.26
61786;BME280;47692;53.714;11.372;2024-03-06T10:55:37;102180.00;;;4.56;82.84
61786;BME280;47692;53.714;11.372;2024-03-06T10:58:06;102173.06;;;4.55;83.53
61786;BME280;47692;53.714;11.372;2024-03-06T11:00:38;102183.81;;;4.70;83.58
61786;BME280;47692;53.714;11.372;2024-03-06T11:03:05;102190.97;;;4.80;83.51
61786;BME280;47692;53.714;11.372;2024-03-06T11:05:35;102182.06;;;4.69;82.96
61786;BME280;47692;53.714;11.372;2024-03-06T11:08:00;102189.38;;;4.85;82.83
61786;BME280;47692;53.714;11.372;2024-03-06T11:10:33;102185.94;;;4.87;81.06
61786;BME280;47692;53.714;11.372;2024-03-06T11:12:58;102193.47;;;4.77;81.41
61786;BME280;47692;53.714;11.372;2024-03-06T11:15:24;102181.47;;;4.81;81.48
61786;BME280;47692;53.714;11.372;2024-03-06T11:17:49;102181.97;;;4.66;80.63
61786;BME280;47692;53.714;11.372;2024-03-06T11:20:18;102179.31;;;4.63;81.14
61786;BME280;47692;53.714;11.372;2024-03-06T11:28:21;102194.47;;;4.82;80.52
61786;BME280;47692;53.714;11.372;2024-03-06T11:31:03;102191.19;;;4.90;80.39
61786;BME280;47692;53.714;11.372;2024-03-06T11:33:37;102187.63;;;4.86;79.66
61786;BME280;47692;53.714;11.372;2024-03-06T11:38:51;102203.13;;;4.84;81.63
61786;BME280;47692;53.714;11.372;2024-03-06T11:41:28;102193.16;;;4.65;80.52
61786;BME280;47692;53.714;11.372;2024-03-06T11:43:55;102177.22;;;4.48;80.33
61786;BME280;47692;53.714;11.372;2024-03-06T11:46:44;102186.78;;;4.50;81.77
61786;BME280;47692;53.714;11.372;2024-03-06T11:49:17;102183.19;;;4.45;82.58
61786;BME280;47692;53.714;11.372;2024-03-06T11:52:03;102191.44;;;4.64;83.19
61786;BME280;47692;53.714;11.372;2024-03-06T11:54:31;102187.16;;;4.66;81.61
61786;BME280;47692;53.714;11.372;2024-03-06T11:56:58;102195.06;;;4.72;80.87
61786;BME280;47692;53.714;11.372;2024-03-06T11:59:28;102192.44;;;4.71;80.66
61786;BME280;47692;53.714;11.372;2024-03-06T12:01:55;102195.75;;;4.65;80.66
61786;BME280;47692;53.714;11.372;2024-03-06T12:04:21;102194.97;;;4.67;80.91
61786;BME280;47692;53.714;11.372;2024-03-06T12:06:47;102192.13;;;4.58;81.06
61786;BME280;47692;53.714;11.372;2024-03-06T12:09:13;102192.75;;;4.48;81.29
61786;BME280;47692;53.714;11.372;2024-03-06T12:11:38;102182.97;;;4.37;81.34
61786;BME280;47692;53.714;11.372;2024-03-06T12:14:04;102187.13;;;4.31;81.50
61786;BME280;47692;53.714;11.372;2024-03-06T12:16:30;102188.84;;;4.30;81.75
61786;BME280;47692;53.714;11.372;2024-03-06T12:18:56;102193.53;;;4.45;81.68
61786;BME280;47692;53.714;11.372;2024-03-06T12:21:32;102193.59;;;4.48;81.61
61786;BME280;47692;53.714;11.372;2024-03-06T12:26:29;102182.66;;;4.25;81.52
61786;BME280;47692;53.714;11.372;2024-03-06T12:31:31;102183.53;;;4.26;81.37
61786;BME280;47692;53.714;11.372;2024-03-06T12:33:57;102188.22;;;4.39;81.74
61786;BME280;47692;53.714;11.372;2024-03-06T12:36:27;102197.34;;;4.60;81.88
61786;BME280;47692;53.714;11.372;2024-03-06T12:38:55;102201.78;;;4.64;81.26
61786;BME280;47692;53.714;11.372;2024-03-06T12:41:20;102196.50;;;4.61;81.39
61786;BME280;47692;53.714;11.372;2024-03-06T12:43:46;102195.38;;;4.49;81.08
61786;BME280;47692;53.714;11.372;2024-03-06T12:46:11;102187.22;;;4.34;81.01
61786;BME280;47692;53.714;11.372;2024-03-06T12:48:37;102188.13;;;4.36;81.03
61786;BME280;47692;53.714;11.372;2024-03-06T12:51:02;102180.31;;;4.34;81.31
61786;BME280;47692;53.714;11.372;2024-03-06T12:53:30;102188.94;;;4.35;81.84
61786;BME280;47692;53.714;11.372;2024-03-06T12:55:55;102186.50;;;4.41;81.93